Time;durP1;ratioP1;P1;durP2;ratioP2;P2;SDS_P1;SDS_P2;PMS_P1;PMS_P2;Temp;Humidity;BMP_temperature;BMP_pressure;BME280_temperature;BME280_humidity;BME280_pressure;Samples;Min_cycle;Max_cycle;Signal;HPM_P1;HPM_P2
2022/07/02 00:02:13;;;;;;;5.15;3.30;;;;;;;12.40;100.00;102069.69;10287386;28;20035;-64
2022/07/02 00:07:14;;;;;;;3.97;3.10;;;;;;;12.28;100.00;102053.09;10286726;28;20035;-65
2022/07/02 00:12:15;;;;;;;6.13;3.70;;;;;;;12.27;100.00;102065.22;10325715;28;20046;-65
2022/07/02 00:17:15;;;;;;;4.30;3.10;;;;;;;12.24;100.00;102053.81;10358527;28;20039;-64
2022/07/02 00:22:16;;;;;;;8.30;4.85;;;;;;;12.20;100.00;102053.44;10342695;28;20041;-65
2022/07/02 00:27:18;;;;;;;7.47;3.30;;;;;;;12.26;100.00;102062.72;10326969;28;20054;-65
2022/07/02 00:32:18;;;;;;;8.52;3.80;;;;;;;12.32;100.00;102059.00;10358938;28;20041;-66
2022/07/02 00:37:19;;;;;;;5.32;3.22;;;;;;;12.36;100.00;102059.34;10296384;28;20046;-65
2022/07/02 00:42:20;;;;;;;4.47;3.40;;;;;;;12.41;100.00;102070.53;10288863;28;20505;-64
2022/07/02 00:47:24;;;;;;;7.82;3.40;;;;;;;12.45;100.00;102068.97;10301937;28;20059;-62
2022/07/02 00:52:24;;;;;;;4.15;3.17;;;;;;;12.44;100.00;102064.53;10286481;28;20043;-65
2022/07/02 00:57:25;;;;;;;5.10;2.72;;;;;;;12.47;100.00;102059.38;10287587;28;20121;-64
2022/07/02 01:02:25;;;;;;;7.07;3.83;;;;;;;12.46;100.00;102054.94;10318053;28;20038;-65
2022/07/02 01:07:26;;;;;;;6.63;3.15;;;;;;;12.40;100.00;102043.97;10285684;28;20054;-62
2022/07/02 01:12:26;;;;;;;8.32;3.08;;;;;;;12.41;100.00;102056.72;10285746;28;20050;-65
2022/07/02 01:17:26;;;;;;;4.65;3.10;;;;;;;12.43;100.00;102044.34;10300693;28;20038;-64
2022/07/02 01:22:40;;;;;;;6.97;3.65;;;;;;;12.49;100.00;102043.41;10286369;28;20050;-64
2022/07/02 01:27:40;;;;;;;6.32;3.65;;;;;;;12.53;100.00;102038.25;10307644;28;20038;-64
2022/07/02 01:32:41;;;;;;;5.88;3.47;;;;;;;12.51;100.00;102040.41;10325871;28;20043;-65
2022/07/02 01:37:41;;;;;;;9.70;3.80;;;;;;;12.43;100.00;102025.03;10327102;28;20061;-65
2022/07/02 01:42:42;;;;;;;8.40;3.42;;;;;;;12.46;100.00;102037.50;10357571;28;20044;-65
2022/07/02 01:47:42;;;;;;;8.95;3.17;;;;;;;12.42;100.00;102041.81;10298042;28;20049;-65
2022/07/02 01:52:43;;;;;;;11.18;3.20;;;;;;;12.36;100.00;102034.50;10315675;28;20043;-65
2022/07/02 01:57:43;;;;;;;5.43;2.63;;;;;;;12.23;100.00;102019.81;10285323;28;20470;-65
2022/07/02 02:02:44;;;;;;;6.60;3.22;;;;;;;12.27;100.00;102042.28;10285737;28;20407;-65
2022/07/02 02:07:44;;;;;;;9.35;3.90;;;;;;;12.26;100.00;102044.22;10285810;28;20130;-64
2022/07/02 02:12:45;;;;;;;8.95;3.88;;;;;;;12.23;100.00;102039.16;10286454;28;20047;-65
2022/07/02 02:17:45;;;;;;;5.25;3.38;;;;;;;12.23;100.00;102028.09;10284378;28;20034;-62
2022/07/02 02:22:45;;;;;;;9.15;3.80;;;;;;;12.27;100.00;102028.47;10299121;28;20047;-65
2022/07/02 02:27:46;;;;;;;7.07;3.55;;;;;;;12.25;100.00;102030.63;10284762;28;20407;-66
2022/07/02 02:32:46;;;;;;;8.18;3.13;;;;;;;12.21;100.00;102026.66;10282271;28;20035;-65
2022/07/02 02:37:47;;;;;;;6.88;3.70;;;;;;;12.15;100.00;102025.69;10285137;28;20043;-65
2022/07/02 02:42:47;;;;;;;5.97;4.07;;;;;;;12.15;100.00;102028.44;10284735;28;20038;-65
2022/07/02 02:47:48;;;;;;;7.78;3.75;;;;;;;12.15;100.00;102036.72;10308400;28;20041;-65
2022/07/02 02:52:48;;;;;;;9.40;3.60;;;;;;;12.15;100.00;102031.22;10321904;28;20043;-65
2022/07/02 02:57:49;;;;;;;6.90;3.95;;;;;;;12.15;100.00;102045.00;10355244;28;20049;-63
2022/07/02 03:02:49;;;;;;;9.02;4.25;;;;;;;12.12;100.00;102048.25;10324843;28;20045;-65
2022/07/02 03:07:50;;;;;;;7.32;4.22;;;;;;;12.00;100.00;102034.41;10325429;28;20038;-65
2022/07/02 03:12:50;;;;;;;6.40;4.35;;;;;;;12.06;100.00;102051.97;10323968;28;20034;-65
2022/07/02 03:17:51;;;;;;;6.82;5.05;;;;;;;12.08;100.00;102049.81;10321076;28;20069;-64
2022/07/02 03:22:51;;;;;;;14.30;5.60;;;;;;;12.08;100.00;102047.03;10345405;28;20046;-65
2022/07/02 03:27:52;;;;;;;8.95;4.38;;;;;;;12.10;100.00;102050.41;10323698;28;20470;-65
2022/07/02 03:32:52;;;;;;;9.45;4.70;;;;;;;12.10;100.00;102055.94;10323845;28;20042;-65
2022/07/02 03:37:53;;;;;;;11.43;4.78;;;;;;;12.11;100.00;102054.84;10320359;28;20035;-65
2022/07/02 03:42:53;;;;;;;8.63;4.55;;;;;;;12.13;100.00;102066.50;10283228;28;20051;-65
2022/07/02 03:47:54;;;;;;;8.60;5.07;;;;;;;12.12;100.00;102070.34;10283311;28;20063;-65
2022/07/02 03:52:54;;;;;;;5.70;4.80;;;;;;;12.13;100.00;102082.22;10287339;28;20038;-65
2022/07/02 03:57:55;;;;;;;8.65;4.65;;;;;;;12.14;100.00;102068.19;10290304;28;20062;-64
2022/07/02 04:02:55;;;;;;;7.63;4.70;;;;;;;12.09;100.00;102065.28;10287531;28;20047;-65
2022/07/02 04:07:55;;;;;;;9.38;4.95;;;;;;;11.82;100.00;102027.00;10290854;28;20035;-66
2022/07/02 04:12:56;;;;;;;7.85;5.90;;;;;;;12.08;100.00;102085.69;10287747;28;20039;-65
2022/07/02 04:17:56;;;;;;;8.35;5.65;;;;;;;12.09;100.00;102071.66;10288926;28;20836;-65
2022/07/02 04:22:57;;;;;;;12.23;5.70;;;;;;;11.84;100.00;102024.84;10303509;28;20074;-65
2022/07/02 04:27:57;;;;;;;8.50;5.22;;;;;;;12.13;100.00;102069.25;10307530;28;20049;-65
2022/07/02 04:32:58;;;;;;;8.13;5.53;;;;;;;12.13;100.00;102068.41;10330116;28;20046;-65
2022/07/02 04:37:58;;;;;;;11.32;5.95;;;;;;;12.13;100.00;102072.00;10329818;28;20046;-65
2022/07/02 04:42:59;;;;;;;7.30;5.80;;;;;;;12.13;100.00;102072.00;10327416;28;20061;-65
2022/07/02 04:47:59;;;;;;;10.80;6.00;;;;;;;12.15;100.00;102072.63;10328618;28;20043;-66
2022/07/02 04:53:00;;;;;;;10.43;5.95;;;;;;;12.22;100.00;102076.13;10328525;28;20030;-65
2022/07/02 04:58:00;;;;;;;8.07;5.80;;;;;;;12.36;100.00;102081.44;10328433;28;20039;-66
2022/07/02 05:03:00;;;;;;;8.25;5.88;;;;;;;12.47;100.00;102084.22;10359627;28;20043;-65
2022/07/02 05:08:01;;;;;;;9.25;6.07;;;;;;;12.57;100.00;102077.25;10327319;28;20135;-66
2022/07/02 05:13:04;;;;;;;9.23;6.22;;;;;;;12.63;100.00;102079.94;10291746;28;20046;-66
2022/07/02 05:18:04;;;;;;;12.15;7.55;;;;;;;12.76;100.00;102080.78;10318252;28;20386;-65
2022/07/02 05:23:05;;;;;;;11.32;7.20;;;;;;;12.91;100.00;102078.38;10291429;28;20061;-66
2022/07/02 05:28:05;;;;;;;17.50;6.85;;;;;;;13.05;100.00;102074.28;10326469;28;20038;-66
2022/07/02 05:33:06;;;;;;;10.07;6.75;;;;;;;13.20;100.00;102082.06;10311293;28;20050;-65
2022/07/02 05:38:06;;;;;;;11.00;6.57;;;;;;;13.43;100.00;102102.50;10287806;28;20042;-66
2022/07/02 05:43:07;;;;;;;13.63;7.03;;;;;;;13.73;100.00;102088.50;10286196;28;20054;-66
2022/07/02 05:48:07;;;;;;;9.20;6.63;;;;;;;13.95;100.00;102090.56;10286002;28;20085;-65
2022/07/02 05:53:07;;;;;;;9.40;6.38;;;;;;;14.19;100.00;102094.91;10286163;28;20038;-65
2022/07/02 05:58:08;;;;;;;10.65;5.13;;;;;;;14.43;100.00;102100.34;10284728;28;20050;-65
2022/07/02 06:03:09;;;;;;;10.98;5.18;;;;;;;14.71;100.00;102103.03;10322761;28;20047;-65
2022/07/02 06:08:09;;;;;;;8.55;4.90;;;;;;;15.05;100.00;102108.56;10326506;28;20049;-66
2022/07/02 06:13:10;;;;;;;9.57;4.93;;;;;;;15.43;100.00;102115.19;10318307;28;20058;-65
2022/07/02 06:18:12;;;;;;;7.13;4.07;;;;;;;15.71;100.00;102105.03;10284931;28;20035;-66
2022/07/02 06:23:12;;;;;;;6.05;3.53;;;;;;;15.97;100.00;102110.91;10285361;28;20519;-66
2022/07/02 06:28:13;;;;;;;4.15;3.05;;;;;;;16.37;100.00;102129.09;10284767;28;20053;-65
2022/07/02 06:33:14;;;;;;;4.55;2.78;;;;;;;16.59;100.00;102121.53;10323420;28;20094;-65
2022/07/02 06:38:14;;;;;;;7.13;2.55;;;;;;;16.92;100.00;102114.88;10324550;28;20049;-64
2022/07/02 06:43:14;;;;;;;8.23;2.38;;;;;;;17.14;100.00;102111.97;10322651;28;21918;-65
2022/07/02 06:48:15;;;;;;;5.82;2.08;;;;;;;17.34;100.00;102113.19;10320802;28;20614;-66
2022/07/02 06:53:15;;;;;;;3.97;1.80;;;;;;;17.30;100.00;102118.47;10318107;28;20045;-65
2022/07/02 06:58:16;;;;;;;4.68;1.50;;;;;;;17.28;100.00;102111.47;10283950;28;20561;-65
2022/07/02 07:03:16;;;;;;;5.75;1.88;;;;;;;17.35;100.00;102126.00;10322698;28;20039;-66
2022/07/02 07:08:17;;;;;;;5.85;1.73;;;;;;;17.46;100.00;102124.94;10376829;28;20037;-66
2022/07/02 07:13:17;;;;;;;4.40;1.10;;;;;;;17.58;100.00;102118.34;10379442;28;20045;-66
2022/07/02 07:18:18;;;;;;;1.70;0.88;;;;;;;17.86;100.00;102123.50;10376497;28;20482;-66
2022/07/02 07:23:18;;;;;;;2.13;0.90;;;;;;;18.04;100.00;102119.34;10361246;28;20041;-66
2022/07/02 07:28:18;;;;;;;3.63;0.95;;;;;;;18.12;100.00;102120.78;10367339;28;20045;-65
2022/07/02 07:33:19;;;;;;;3.10;0.85;;;;;;;18.15;100.00;102112.72;10378895;28;20049;-65
2022/07/02 07:38:20;;;;;;;3.05;0.88;;;;;;;18.46;100.00;102121.13;10402469;28;20488;-65
2022/07/02 07:43:20;;;;;;;2.10;0.90;;;;;;;18.71;100.00;102125.88;10375105;28;20436;-65
2022/07/02 07:48:20;;;;;;;2.30;0.77;;;;;;;18.76;97.02;102116.66;10377722;28;20037;-65
2022/07/02 07:53:21;;;;;;;0.80;0.50;;;;;;;19.00;96.11;102118.91;10385239;28;20157;-65
2022/07/02 07:58:21;;;;;;;7.22;1.50;;;;;;;19.19;94.70;102116.38;10373997;28;20046;-65
2022/07/02 08:03:22;;;;;;;1.77;0.60;;;;;;;19.36;93.45;102108.50;10372107;28;20049;-66
2022/07/02 08:08:22;;;;;;;0.98;0.50;;;;;;;19.43;89.21;102102.59;10370151;28;20034;-66
2022/07/02 08:13:23;;;;;;;1.33;0.50;;;;;;;19.40;89.56;102108.78;10368732;28;20038;-65
2022/07/02 08:18:23;;;;;;;3.00;0.55;;;;;;;19.74;87.14;102114.53;10355401;28;20037;-65
2022/07/02 08:23:24;;;;;;;1.60;0.60;;;;;;;19.98;88.25;102111.06;10360583;28;20042;-65
2022/07/02 08:28:24;;;;;;;3.53;0.63;;;;;;;20.12;85.54;102109.31;10370079;28;20072;-65
2022/07/02 08:33:25;;;;;;;2.10;0.65;;;;;;;20.31;86.34;102113.09;10371190;28;20069;-65
2022/07/02 08:38:25;;;;;;;5.90;0.77;;;;;;;20.33;83.20;102096.84;10369189;28;20049;-66
2022/07/02 08:43:27;;;;;;;1.95;0.80;;;;;;;20.39;83.04;102116.41;10369012;28;20522;-65
2022/07/02 08:48:27;;;;;;;3.53;0.70;;;;;;;20.45;81.50;102102.09;10383623;28;20045;-65
2022/07/02 08:53:27;;;;;;;2.10;0.40;;;;;;;20.21;76.46;102087.16;10383161;28;20053;-66
2022/07/02 08:58:28;;;;;;;2.35;0.50;;;;;;;20.19;75.11;102079.06;10368400;28;20042;-64
2022/07/02 09:03:28;;;;;;;1.80;0.30;;;;;;;20.30;75.29;102089.06;10369496;28;20033;-66
2022/07/02 09:08:30;;;;;;;0.80;0.45;;;;;;;20.68;74.29;102080.94;10399343;28;20044;-65
2022/07/02 09:13:30;;;;;;;1.35;0.77;;;;;;;20.64;72.45;102067.84;10368143;28;20042;-66
2022/07/02 09:18:31;;;;;;;1.05;0.40;;;;;;;20.80;73.88;102072.16;10382253;28;20046;-65
2022/07/02 09:23:31;;;;;;;1.92;0.47;;;;;;;21.16;75.49;102086.59;10399804;28;20039;-67
2022/07/02 09:28:32;;;;;;;2.83;0.50;;;;;;;21.57;71.59;102068.53;10323380;28;20537;-66
2022/07/02 09:33:32;;;;;;;1.05;0.40;;;;;;;21.40;69.20;102063.38;10288354;28;20043;-67
2022/07/02 09:38:42;;;;;;;0.98;0.30;;;;;;;21.73;71.30;102071.97;10286893;28;20039;-65
2022/07/02 09:43:43;;;;;;;1.27;0.57;;;;;;;22.10;71.59;102071.16;10345755;28;20040;-65
2022/07/02 09:48:43;;;;;;;3.88;0.35;;;;;;;22.10;68.65;102042.28;10364398;28;20037;-66
2022/07/02 09:53:51;;;;;;;2.35;0.95;;;;;;;22.52;66.67;102043.28;10347372;28;20126;-64
2022/07/02 09:58:52;;;;;;;1.58;0.63;;;;;;;22.74;65.18;102035.03;10318637;28;20042;-64
2022/07/02 10:03:53;;;;;;;2.28;0.65;;;;;;;22.93;63.68;102039.72;10287144;28;20035;-65
2022/07/02 10:08:54;;;;;;;0.77;0.45;;;;;;;22.99;64.40;102041.31;10284028;28;20038;-67
2022/07/02 10:13:54;;;;;;;0.45;0.20;;;;;;;22.97;64.92;102040.78;10315669;28;20039;-69
2022/07/02 10:18:55;;;;;;;1.13;0.30;;;;;;;22.99;62.96;102035.69;10339113;28;20041;-63
2022/07/02 10:23:55;;;;;;;0.63;0.30;;;;;;;22.71;67.55;102046.84;10339448;28;20042;-64
2022/07/02 10:28:56;;;;;;;1.83;0.40;;;;;;;22.38;61.47;102022.75;10355793;28;20038;-67
2022/07/02 10:34:05;;;;;;;0.50;0.30;;;;;;;22.03;64.19;102024.97;10356634;28;20759;-63
2022/07/02 10:39:06;;;;;;;1.60;0.32;;;;;;;22.08;66.27;102045.38;10325690;28;20540;-68
2022/07/02 10:44:07;;;;;;;1.35;0.30;;;;;;;21.80;64.51;102035.97;10325497;28;20037;-67
2022/07/02 10:49:07;;;;;;;1.15;0.47;;;;;;;21.95;65.70;102041.38;10338211;28;20054;-64
2022/07/02 10:54:07;;;;;;;4.43;0.50;;;;;;;22.48;63.45;102019.78;10355401;28;20045;-66
2022/07/02 10:59:28;;;;;;;1.75;0.35;;;;;;;22.46;62.82;102033.28;10326235;28;20042;-66
2022/07/02 11:04:29;;;;;;;2.97;0.50;;;;;;;22.79;65.30;102038.88;10347748;28;20406;-66
2022/07/02 11:09:29;;;;;;;1.00;0.40;;;;;;;23.85;61.74;102009.72;10330112;28;20058;-67
2022/07/02 11:14:29;;;;;;;3.50;1.02;;;;;;;23.65;62.71;102025.06;10363057;28;20042;-65
2022/07/02 11:19:30;;;;;;;2.65;0.75;;;;;;;23.63;63.29;102027.34;10329188;28;20332;-66
2022/07/02 11:24:31;;;;;;;1.20;0.50;;;;;;;23.59;63.17;102025.50;10304018;28;20495;-66
2022/07/02 11:29:32;;;;;;;0.25;0.20;;;;;;;23.56;64.57;102022.19;10381554;28;20046;-65
2022/07/02 11:34:32;;;;;;;2.83;1.00;;;;;;;24.04;62.10;102009.56;10385384;28;20049;-66
2022/07/02 11:39:33;;;;;;;1.42;0.50;;;;;;;24.40;62.63;102010.66;10390076;28;20038;-66
2022/07/02 11:44:33;;;;;;;1.05;0.40;;;;;;;24.22;62.12;102002.06;10373320;28;20070;-65
2022/07/02 11:49:34;;;;;;;2.90;1.05;;;;;;;24.72;62.25;101999.13;10369337;28;20044;-64
2022/07/02 11:54:40;;;;;;;5.18;0.52;;;;;;;25.73;61.43;101995.59;10373328;28;20046;-66
2022/07/02 11:59:40;;;;;;;2.00;0.60;;;;;;;25.81;55.99;101983.50;10372691;28;20104;-66
2022/07/02 12:04:42;;;;;;;2.72;0.40;;;;;;;25.24;58.63;101977.94;10333635;28;20077;-65
2022/07/02 12:09:42;;;;;;;1.88;0.47;;;;;;;24.82;59.94;101980.25;10334290;28;20030;-66
2022/07/02 12:14:45;;;;;;;3.25;0.80;;;;;;;24.46;59.40;101998.09;10384485;28;20034;-67
2022/07/02 12:19:45;;;;;;;4.00;0.60;;;;;;;24.87;59.56;101991.41;10370940;28;20038;-66
2022/07/02 12:24:50;;;;;;;1.38;0.45;;;;;;;26.23;57.59;101983.00;10369641;28;20038;-66
2022/07/02 12:29:54;;;;;;;2.53;0.50;;;;;;;27.77;52.00;101953.50;10360287;28;20082;-66
2022/07/02 12:34:56;;;;;;;1.65;0.60;;;;;;;27.98;52.85;101967.66;10328369;28;20061;-66
2022/07/02 12:40:13;;;;;;;1.02;0.47;;;;;;;26.70;51.82;101966.94;10343153;28;20066;-64
2022/07/02 12:45:36;;;;;;;2.88;0.68;;;;;;;25.91;55.03;101974.72;10329654;28;20034;-64
2022/07/02 12:50:40;;;;;;;2.40;0.65;;;;;;;26.91;55.33;101967.00;10362442;28;20050;-66
2022/07/02 12:55:45;;;;;;;2.75;0.90;;;;;;;26.76;53.55;101959.13;10398709;28;20068;-70
2022/07/02 13:00:45;;;;;;;1.95;0.55;;;;;;;27.15;55.46;101954.25;10382789;28;20045;-66
2022/07/02 13:05:50;;;;;;;21.58;1.27;;;;;;;26.98;56.42;101975.81;10368570;28;20053;-65
2022/07/02 13:10:52;;;;;;;2.13;0.47;;;;;;;26.05;54.54;101963.28;10399209;28;20030;-65
2022/07/02 13:15:52;;;;;;;3.08;0.55;;;;;;;25.54;55.72;101971.34;10384256;28;20038;-64
2022/07/02 13:20:53;;;;;;;2.22;0.60;;;;;;;25.75;57.67;101968.72;10328763;28;20422;-64
2022/07/02 13:25:55;;;;;;;2.75;1.15;;;;;;;26.11;57.75;101966.75;10362696;28;20548;-65
2022/07/02 13:30:56;;;;;;;2.45;0.55;;;;;;;25.68;54.81;101954.28;10384465;28;20053;-66
2022/07/02 13:35:56;;;;;;;1.23;0.60;;;;;;;25.21;57.44;101956.06;10383798;28;20034;-65
2022/07/02 13:40:57;;;;;;;2.22;0.90;;;;;;;25.61;57.39;101953.13;10382256;28;20034;-64
2022/07/02 13:45:57;;;;;;;4.15;0.40;;;;;;;25.69;58.11;101952.28;10379808;28;20048;-66
2022/07/02 13:50:57;;;;;;;5.47;1.40;;;;;;;25.45;55.93;101933.06;10378164;28;20093;-65
2022/07/02 13:55:58;;;;;;;3.13;1.15;;;;;;;26.71;54.91;101923.41;10366671;28;20042;-65
2022/07/02 14:00:58;;;;;;;2.50;0.82;;;;;;;27.75;54.86;101909.75;10367200;28;20034;-66
2022/07/02 14:05:59;;;;;;;2.85;1.48;;;;;;;28.56;53.20;101904.59;10366614;28;20034;-62
2022/07/02 14:10:59;;;;;;;2.78;1.00;;;;;;;29.35;49.15;101887.28;10344110;28;20061;-64
2022/07/02 14:16:00;;;;;;;2.03;0.75;;;;;;;29.36;47.09;101871.94;10324902;28;20070;-63
2022/07/02 14:21:01;;;;;;;2.47;0.70;;;;;;;28.89;48.90;101884.63;10325783;28;20046;-63
2022/07/02 14:26:01;;;;;;;2.90;0.70;;;;;;;27.50;50.74;101895.50;10354047;28;20054;-63
2022/07/02 14:31:02;;;;;;;2.13;0.60;;;;;;;28.37;50.18;101891.78;10365747;28;20046;-65
2022/07/02 14:36:03;;;;;;;2.88;0.60;;;;;;;28.96;50.26;101884.88;10365405;28;20353;-65
2022/07/02 14:46:31;;;;;;;5.45;0.98;;;;;;;28.40;50.99;101855.44;10388855;28;20052;-64
2022/07/02 14:51:32;;;;;;;2.95;0.95;;;;;;;29.11;49.75;101869.16;10364378;28;20567;-65
2022/07/02 14:56:34;;;;;;;2.88;0.60;;;;;;;28.50;49.48;101852.19;10344472;28;20062;-65
2022/07/02 15:01:34;;;;;;;1.30;0.47;;;;;;;27.97;49.45;101864.13;10339577;28;20056;-64
2022/07/02 15:06:35;;;;;;;7.65;1.88;;;;;;;28.75;51.60;101855.84;10374546;28;20428;-65
2022/07/02 15:11:35;;;;;;;3.72;2.47;;;;;;;28.63;51.02;101865.19;10375421;28;20042;-64
2022/07/02 15:16:35;;;;;;;2.63;0.60;;;;;;;28.95;49.11;101848.38;10377338;28;20053;-66
2022/07/02 15:21:42;;;;;;;6.53;2.53;;;;;;;28.20;49.43;101840.22;10374506;28;20042;-65
2022/07/02 15:26:45;;;;;;;7.10;3.50;;;;;;;27.31;52.54;101866.88;10381355;28;20101;-64
2022/07/02 15:31:45;;;;;;;6.88;4.10;;;;;;;27.88;52.62;101863.38;10335634;28;20129;-65
2022/07/02 15:36:48;;;;;;;5.25;1.02;;;;;;;29.21;47.83;101832.97;10322484;28;20502;-66
2022/07/02 15:41:48;;;;;;;3.28;1.98;;;;;;;28.74;47.73;101817.34;10324118;28;20038;-65
2022/07/02 15:46:49;;;;;;;1.88;1.10;;;;;;;29.98;46.03;101779.66;10324876;28;20081;-65
2022/07/02 15:51:50;;;;;;;7.82;4.30;;;;;;;31.49;47.21;101819.34;10344243;28;20042;-65
2022/07/02 15:56:52;;;;;;;4.85;1.95;;;;;;;31.01;45.61;101801.59;10361592;28;20042;-65
2022/07/02 16:01:56;;;;;;;5.07;2.40;;;;;;;31.01;44.74;101805.31;10328020;28;20101;-65
2022/07/02 16:06:58;;;;;;;1.27;0.90;;;;;;;30.17;45.58;101801.63;10334660;28;20126;-65
2022/07/02 16:11:58;;;;;;;10.43;6.43;;;;;;;31.18;44.60;101796.31;10335414;28;20089;-66
2022/07/02 16:16:59;;;;;;;1.85;0.60;;;;;;;31.45;42.42;101770.88;10328023;28;20061;-66
2022/07/02 16:21:59;;;;;;;4.20;3.25;;;;;;;30.45;44.35;101777.16;10329302;28;20031;-65
2022/07/02 16:27:00;;;;;;;5.82;3.67;;;;;;;29.42;46.16;101779.72;10313636;28;20049;-65
2022/07/02 16:32:00;;;;;;;2.70;0.95;;;;;;;28.56;46.38;101762.94;10328549;28;20049;-66
2022/07/02 16:37:08;;;;;;;5.90;1.88;;;;;;;27.71;49.51;101787.97;10334176;28;20042;-65
2022/07/02 16:42:08;;;;;;;1.77;0.57;;;;;;;26.96;52.29;101788.81;10340144;28;20038;-65
2022/07/02 16:47:12;;;;;;;3.83;0.90;;;;;;;26.19;54.08;101810.69;10371845;28;20049;-65
2022/07/02 16:52:12;;;;;;;2.20;1.02;;;;;;;25.52;53.73;101801.69;10342367;28;20035;-65
2022/07/02 16:57:13;;;;;;;3.35;1.15;;;;;;;24.95;56.89;101816.78;10326107;28;20046;-65
2022/07/02 17:02:22;;;;;;;3.97;0.50;;;;;;;24.66;57.28;101805.28;10327867;28;20509;-66
2022/07/02 17:07:23;;;;;;;2.63;0.80;;;;;;;24.53;58.23;101812.69;10328160;28;20130;-64
2022/07/02 17:12:23;;;;;;;1.98;1.02;;;;;;;24.36;60.73;101821.88;10318122;28;20470;-65
2022/07/02 17:17:24;;;;;;;2.95;0.75;;;;;;;24.17;60.80;101805.28;10328480;28;20038;-66
2022/07/02 17:22:24;;;;;;;3.13;0.60;;;;;;;24.12;60.36;101802.59;10357923;28;20041;-65
2022/07/02 17:27:25;;;;;;;4.72;0.90;;;;;;;23.92;59.52;101776.69;10326537;28;20035;-64
2022/07/02 17:32:25;;;;;;;3.50;0.70;;;;;;;23.94;60.77;101785.63;10320392;28;20043;-64
2022/07/02 17:37:26;;;;;;;2.15;0.63;;;;;;;23.91;61.74;101791.88;10288139;28;20043;-63
2022/07/02 17:42:26;;;;;;;2.53;0.50;;;;;;;23.84;62.14;101791.53;10287036;28;20042;-64
2022/07/02 17:47:27;;;;;;;1.52;0.60;;;;;;;23.68;66.00;101799.50;10347985;28;20041;-65
2022/07/02 17:52:27;;;;;;;3.13;0.60;;;;;;;23.50;65.77;101800.53;10327007;28;20062;-65
2022/07/02 17:57:28;;;;;;;3.53;0.70;;;;;;;23.41;63.67;101780.00;10305314;28;20039;-64
2022/07/02 18:02:28;;;;;;;191.35;14.05;;;;;;;23.27;68.50;101794.91;10323719;28;20570;-63
2022/07/02 18:07:29;;;;;;;2.72;0.68;;;;;;;22.97;66.36;101772.00;10326581;28;20050;-64
2022/07/02 18:12:29;;;;;;;6.28;0.50;;;;;;;22.97;67.50;101780.44;10325285;28;20054;-65
2022/07/02 18:17:30;;;;;;;4.63;1.00;;;;;;;22.74;68.48;101770.31;10325584;28;20046;-65
2022/07/02 18:22:30;;;;;;;4.88;0.95;;;;;;;22.43;69.68;101770.13;10324056;28;20050;-63
2022/07/02 18:27:31;;;;;;;2.28;0.85;;;;;;;22.17;72.13;101784.69;10289650;28;20078;-64
2022/07/02 18:32:31;;;;;;;2.55;0.47;;;;;;;21.95;75.45;101783.44;10282481;28;20207;-65
2022/07/02 18:37:33;;;;;;;3.53;0.75;;;;;;;21.76;76.89;101786.28;10286082;28;20049;-65
2022/07/02 18:42:37;;;;;;;3.17;0.50;;;;;;;21.51;78.32;101776.34;10284213;28;20107;-66
2022/07/02 18:47:37;;;;;;;2.83;0.70;;;;;;;21.35;78.26;101777.72;10284179;28;20046;-65
2022/07/02 18:52:38;;;;;;;1.58;0.47;;;;;;;21.18;79.10;101769.88;10283767;28;20043;-65
2022/07/02 18:57:39;;;;;;;3.78;0.77;;;;;;;21.02;80.70;101772.06;10286520;28;20151;-66
2022/07/02 19:02:40;;;;;;;3.22;1.00;;;;;;;20.92;83.45;101784.28;10320787;28;20049;-66
2022/07/02 19:07:40;;;;;;;1.88;0.63;;;;;;;20.84;89.83;101795.31;10324630;28;20110;-60
2022/07/02 19:12:41;;;;;;;2.30;0.88;;;;;;;20.72;95.35;101785.41;10325002;28;21034;-65
2022/07/02 19:17:41;;;;;;;4.25;0.90;;;;;;;20.63;99.27;101790.00;10324035;28;20034;-65
2022/07/02 19:22:41;;;;;;;2.78;0.82;;;;;;;20.52;98.79;101785.63;10327131;28;20097;-66
2022/07/02 19:33:05;;;;;;;3.35;0.93;;;;;;;20.33;100.00;101778.03;10333258;28;20046;-65
2022/07/02 19:38:05;;;;;;;2.35;0.75;;;;;;;20.19;100.00;101785.47;10371305;28;20076;-65
2022/07/02 19:43:06;;;;;;;3.00;0.80;;;;;;;20.11;100.00;101783.34;10371205;28;20121;-66
2022/07/02 19:48:06;;;;;;;3.50;1.30;;;;;;;20.02;100.00;101782.31;10353434;28;20042;-66
2022/07/02 19:53:07;;;;;;;9.63;1.40;;;;;;;19.96;100.00;101768.41;10330376;28;20030;-66
2022/07/02 19:58:07;;;;;;;2.28;1.00;;;;;;;19.88;100.00;101771.84;10330437;28;20034;-66
2022/07/02 20:03:08;;;;;;;3.42;0.98;;;;;;;19.78;100.00;101777.53;10331120;28;20038;-66
2022/07/02 20:08:08;;;;;;;6.53;1.17;;;;;;;19.67;100.00;101775.94;10329585;28;20069;-66
2022/07/02 20:13:09;;;;;;;4.63;1.00;;;;;;;19.55;100.00;101774.38;10329201;28;20069;-66
2022/07/02 20:18:09;;;;;;;4.00;1.73;;;;;;;19.47;100.00;101768.56;10305627;28;20030;-66
2022/07/02 20:23:10;;;;;;;3.03;1.10;;;;;;;19.40;100.00;101768.91;10359783;28;20065;-64
2022/07/02 20:28:10;;;;;;;5.05;1.88;;;;;;;19.34;100.00;101767.28;10329248;28;22315;-65
2022/07/02 20:33:11;;;;;;;2.92;1.45;;;;;;;19.19;100.00;101764.63;10329565;28;20038;-66
2022/07/02 20:38:12;;;;;;;4.32;1.50;;;;;;;19.17;100.00;101767.72;10359731;28;20038;-66
2022/07/02 20:43:12;;;;;;;3.13;1.58;;;;;;;19.10;100.00;101762.47;10327728;28;20043;-66
2022/07/02 20:48:13;;;;;;;3.58;1.30;;;;;;;19.00;100.00;101762.53;10309234;28;20066;-66
2022/07/02 20:53:13;;;;;;;3.17;1.70;;;;;;;18.96;100.00;101772.63;10329462;28;20521;-66
2022/07/02 20:58:14;;;;;;;2.42;1.20;;;;;;;18.84;100.00;101760.97;10328024;28;20038;-67
2022/07/02 21:03:15;;;;;;;3.58;1.40;;;;;;;18.83;100.00;101773.25;10327335;28;20049;-66
2022/07/02 21:08:17;;;;;;;4.80;1.38;;;;;;;18.79;100.00;101772.16;10322838;28;20049;-66
2022/07/02 21:13:17;;;;;;;3.03;1.52;;;;;;;18.75;100.00;101771.88;10323481;28;20065;-66
2022/07/02 21:18:18;;;;;;;6.75;2.60;;;;;;;18.81;100.00;101770.75;10321213;28;20129;-65
2022/07/02 21:23:19;;;;;;;3.83;1.70;;;;;;;18.87;100.00;101774.31;10325103;28;20261;-66
2022/07/02 21:28:19;;;;;;;4.60;2.08;;;;;;;18.85;100.00;101776.56;10346665;28;20074;-62
2022/07/02 21:33:20;;;;;;;5.47;1.85;;;;;;;18.84;100.00;101772.13;10340556;28;20049;-65
2022/07/02 21:38:20;;;;;;;6.07;1.65;;;;;;;18.81;100.00;101775.47;10324345;28;20038;-65
2022/07/02 21:43:21;;;;;;;4.25;1.77;;;;;;;18.72;100.00;101784.41;10324163;28;20728;-65
2022/07/02 21:48:22;;;;;;;4.50;1.55;;;;;;;18.68;100.00;101777.75;10322090;28;20093;-65
2022/07/02 21:53:23;;;;;;;5.25;1.70;;;;;;;18.60;100.00;101767.19;10325191;28;20158;-65
2022/07/02 21:58:24;;;;;;;3.67;1.90;;;;;;;18.50;100.00;101764.44;10321805;28;20054;-64
2022/07/02 22:03:25;;;;;;;5.80;2.08;;;;;;;18.41;100.00;101764.22;10323709;28;20118;-64
2022/07/02 22:08:25;;;;;;;5.00;2.28;;;;;;;18.32;100.00;101755.63;10324010;28;20546;-66
2022/07/02 22:13:26;;;;;;;7.63;2.65;;;;;;;18.26;100.00;101755.94;10322065;28;20065;-65
2022/07/02 22:18:27;;;;;;;7.18;2.80;;;;;;;18.18;100.00;101751.78;10324378;28;20097;-66
2022/07/02 22:23:28;;;;;;;6.35;2.78;;;;;;;18.10;100.00;101738.44;10323801;28;20529;-65
2022/07/02 22:28:29;;;;;;;3.78;2.60;;;;;;;18.08;100.00;101746.25;10338993;28;20054;-65
2022/07/02 22:33:30;;;;;;;6.78;3.10;;;;;;;18.05;100.00;101742.06;10356791;28;20058;-65
2022/07/02 22:38:30;;;;;;;7.93;3.70;;;;;;;18.00;100.00;101741.25;10324048;28;20519;-65
2022/07/02 22:43:31;;;;;;;5.40;2.97;;;;;;;17.91;100.00;101730.69;10323877;28;20041;-66
2022/07/02 22:48:32;;;;;;;5.15;3.28;;;;;;;17.91;100.00;101741.81;10373014;28;20101;-66
2022/07/02 22:53:33;;;;;;;6.60;4.20;;;;;;;17.88;100.00;101731.28;10342088;28;20126;-65
2022/07/02 22:58:33;;;;;;;7.05;4.47;;;;;;;17.81;100.00;101727.06;10329353;28;20042;-65
2022/07/02 23:03:34;;;;;;;10.00;5.53;;;;;;;17.81;100.00;101732.63;10363807;28;20113;-65